createdAt,value
2022-11-16T00:00:15.469Z,82.85
2022-11-16T00:02:16.959Z,83.41
2022-11-16T00:04:18.447Z,84.53
2022-11-16T00:06:21.081Z,84.47
2022-11-16T00:08:22.688Z,84.24
2022-11-16T00:10:24.193Z,84.76
2022-11-16T00:12:25.572Z,84.35
2022-11-16T00:14:29.813Z,85.66
2022-11-16T00:16:31.230Z,84.98
2022-11-16T00:18:33.116Z,85.19
2022-11-16T00:20:34.640Z,85.56
2022-11-16T00:22:36.013Z,86.19
2022-11-16T00:24:37.383Z,85.62
2022-11-16T00:26:38.751Z,85.23
2022-11-16T00:28:40.255Z,85.76
2022-11-16T00:30:41.668Z,86.33
2022-11-16T00:32:42.998Z,87.07
2022-11-16T00:34:44.393Z,87.22
2022-11-16T00:36:46.617Z,86.88
2022-11-16T00:38:51.146Z,87.02
2022-11-16T00:40:52.563Z,87.70
2022-11-16T00:42:53.900Z,87.09
2022-11-16T00:44:55.376Z,88.36
2022-11-16T00:46:56.745Z,88.49
2022-11-16T00:48:58.155Z,87.55
2022-11-16T00:50:59.508Z,88.50
2022-11-16T00:53:00.940Z,87.98
2022-11-16T00:55:02.282Z,87.58
2022-11-16T00:57:03.700Z,88.22
2022-11-16T00:59:05.278Z,89.39
2022-11-16T01:01:08.863Z,87.81
2022-11-16T01:03:10.950Z,87.81
2022-11-16T01:05:12.604Z,88.49
2022-11-16T01:07:14.093Z,87.79
2022-11-16T01:09:15.510Z,88.13
2022-11-16T01:11:36.271Z,89.02
2022-11-16T01:13:37.617Z,88.38
2022-11-16T01:15:39.009Z,88.33
2022-11-16T01:17:40.924Z,88.72
2022-11-16T01:19:42.405Z,89.29
2022-11-16T01:21:43.739Z,89.45
2022-11-16T01:23:45.220Z,89.73
2022-11-16T01:25:46.539Z,89.27
2022-11-16T01:27:48.003Z,88.79
2022-11-16T01:29:49.370Z,89.24
2022-11-16T01:31:50.778Z,88.80
2022-11-16T01:33:52.159Z,88.90
2022-11-16T01:35:53.521Z,89.35
2022-11-16T01:37:54.884Z,88.70
2022-11-16T01:39:56.412Z,89.17
2022-11-16T01:41:57.820Z,89.01
2022-11-16T01:44:15.570Z,89.06
2022-11-16T01:46:16.987Z,89.16
2022-11-16T01:48:25.861Z,88.74
2022-11-16T01:50:27.666Z,89.23
2022-11-16T01:52:32.649Z,89.12
2022-11-16T01:54:40.565Z,89.30
2022-11-16T01:56:45.248Z,89.98
2022-11-16T01:58:47.004Z,90.40
2022-11-16T02:00:49.159Z,88.86
2022-11-16T02:02:51.005Z,90.34
2022-11-16T02:04:55.239Z,89.23
2022-11-16T02:07:05.566Z,89.99
2022-11-16T02:09:38.725Z,89.65
2022-11-16T02:12:11.086Z,90.27
2022-11-16T02:14:21.383Z,90.39
2022-11-16T02:16:49.464Z,90.89
2022-11-16T02:19:32.245Z,90.22
2022-11-16T02:21:42.492Z,90.04
2022-11-16T02:24:33.032Z,90.74
2022-11-16T02:27:19.290Z,90.75
2022-11-16T02:29:37.910Z,90.89
2022-11-16T02:31:46.956Z,90.83
2022-11-16T02:33:50.097Z,90.92
2022-11-16T02:35:56.369Z,91.60
2022-11-16T02:38:02.605Z,91.45
2022-11-16T02:40:07.824Z,91.13
2022-11-16T02:42:17.059Z,90.75
2022-11-16T02:44:23.075Z,91.21
2022-11-16T02:46:31.122Z,91.49
2022-11-16T02:48:43.419Z,91.66
2022-11-16T02:50:46.664Z,91.32
2022-11-16T02:52:48.004Z,91.17
2022-11-16T02:54:49.423Z,91.40
2022-11-16T02:56:57.499Z,91.21
2022-11-16T02:58:59.775Z,90.78
2022-11-16T03:01:06.211Z,90.40
2022-11-16T03:03:30.904Z,89.91
2022-11-16T03:05:45.484Z,90.93
2022-11-16T03:08:15.004Z,90.99
2022-11-16T03:10:40.150Z,91.60
2022-11-16T03:12:42.146Z,91.57
2022-11-16T03:14:58.585Z,91.63
2022-11-16T03:17:01.944Z,91.56
2022-11-16T03:19:07.898Z,91.90
2022-11-16T03:21:24.184Z,91.43
2022-11-16T03:23:25.531Z,91.99
2022-11-16T03:25:32.956Z,92.00
2022-11-16T03:27:44.828Z,91.58
2022-11-16T03:30:04.726Z,91.32
2022-11-16T03:32:16.452Z,92.19
2022-11-16T03:34:22.455Z,91.96
2022-11-16T03:36:33.494Z,92.48
2022-11-16T03:38:37.700Z,91.84
2022-11-16T03:40:40.528Z,91.88
2022-11-16T03:42:43.816Z,91.92
2022-11-16T03:44:47.642Z,91.84
2022-11-16T03:46:49.028Z,91.88
2022-11-16T03:48:57.029Z,92.38
2022-11-16T03:50:58.449Z,92.44
2022-11-16T03:52:59.780Z,92.04
2022-11-16T03:55:01.227Z,91.78
2022-11-16T03:57:02.581Z,91.90
2022-11-16T03:59:04.487Z,91.83
2022-11-16T04:01:06.071Z,92.30
2022-11-16T04:03:07.613Z,92.89
2022-11-16T04:05:28.508Z,92.27
2022-11-16T04:07:48.324Z,92.43
2022-11-16T04:10:08.180Z,91.86
2022-11-16T04:12:27.860Z,92.25
2022-11-16T04:14:48.215Z,92.75
2022-11-16T04:17:08.063Z,92.58
2022-11-16T04:19:28.405Z,92.92
2022-11-16T04:21:57.335Z,92.44
2022-11-16T04:24:13.572Z,92.08
2022-11-16T04:26:15.284Z,92.52
2022-11-16T04:28:19.243Z,92.83
2022-11-16T04:30:20.783Z,93.04
2022-11-16T04:32:40.732Z,92.68
2022-11-16T04:35:00.457Z,92.59
2022-11-16T04:37:20.141Z,92.63
2022-11-16T04:39:21.895Z,92.57
2022-11-16T04:41:42.078Z,92.10
2022-11-16T04:43:43.448Z,92.12
2022-11-16T04:46:03.200Z,92.84
2022-11-16T04:48:05.024Z,92.33
2022-11-16T04:50:07.021Z,92.31
2022-11-16T04:52:08.859Z,93.51
2022-11-16T04:54:10.227Z,92.94
2022-11-16T04:56:12.415Z,92.38
2022-11-16T04:58:13.818Z,92.57
2022-11-16T05:00:15.829Z,92.76
2022-11-16T05:02:17.431Z,92.33
2022-11-16T05:04:18.796Z,93.00
2022-11-16T05:06:20.172Z,92.71
2022-11-16T05:08:21.523Z,92.45
2022-11-16T05:10:22.936Z,92.43
2022-11-16T05:12:26.270Z,92.43
2022-11-16T05:14:27.626Z,92.73
2022-11-16T05:16:28.953Z,92.04
2022-11-16T05:18:30.500Z,91.58
2022-11-16T05:20:50.557Z,92.88
2022-11-16T05:22:56.560Z,92.35
2022-11-16T05:24:57.998Z,92.36
2022-11-16T05:27:04.696Z,92.08
2022-11-16T05:29:06.055Z,92.78
2022-11-16T05:31:07.399Z,92.18
2022-11-16T05:33:08.728Z,92.23
2022-11-16T05:35:10.106Z,92.78
2022-11-16T05:37:11.861Z,92.16
2022-11-16T05:39:13.278Z,91.76
2022-11-16T05:41:14.694Z,92.81
2022-11-16T05:43:16.084Z,92.16
2022-11-16T05:45:21.023Z,93.09
2022-11-16T05:47:22.673Z,92.17
2022-11-16T05:49:24.393Z,92.78
2022-11-16T05:51:25.827Z,92.72
2022-11-16T05:53:27.200Z,92.72
2022-11-16T05:55:28.584Z,92.27
2022-11-16T05:57:29.941Z,92.59
2022-11-16T05:59:31.370Z,92.67
2022-11-16T06:01:32.758Z,92.84
2022-11-16T06:03:35.528Z,92.27
2022-11-16T06:05:40.488Z,92.03
2022-11-16T06:07:42.245Z,92.08
2022-11-16T06:09:43.735Z,91.76
2022-11-16T06:11:45.098Z,92.00
2022-11-16T06:13:46.468Z,91.72
2022-11-16T06:15:53.168Z,90.99
2022-11-16T06:17:54.540Z,92.15
2022-11-16T06:19:55.880Z,91.43
2022-11-16T06:21:57.232Z,90.91
2022-11-16T06:23:58.598Z,91.81
2022-11-16T06:26:00.361Z,91.60
2022-11-16T06:28:06.648Z,90.63
2022-11-16T06:30:09.400Z,91.34
2022-11-16T06:32:10.752Z,91.42
2022-11-16T06:34:12.102Z,90.56
2022-11-16T06:36:13.498Z,91.89
2022-11-16T06:38:18.595Z,91.04
2022-11-16T06:40:19.935Z,91.12
2022-11-16T06:42:21.354Z,91.42
2022-11-16T06:44:22.759Z,91.14
2022-11-16T06:46:24.649Z,91.23
2022-11-16T06:48:26.600Z,91.41
2022-11-16T06:50:27.951Z,91.59
2022-11-16T06:52:29.384Z,91.65
2022-11-16T06:54:30.748Z,91.60
2022-11-16T06:56:34.624Z,92.20
2022-11-16T06:58:36.330Z,92.19
2022-11-16T07:00:38.074Z,92.03
2022-11-16T07:02:40.107Z,92.31
2022-11-16T07:04:41.756Z,92.33
2022-11-16T07:06:43.093Z,92.44
2022-11-16T07:08:44.504Z,92.30
2022-11-16T07:10:45.851Z,91.67
2022-11-16T07:12:47.200Z,91.67
2022-11-16T07:14:48.641Z,91.43
2022-11-16T07:16:52.685Z,92.19
2022-11-16T07:18:58.975Z,90.84
2022-11-16T07:21:09.165Z,92.02
2022-11-16T07:23:14.217Z,91.86
2022-11-16T07:25:15.859Z,91.10
2022-11-16T07:27:17.235Z,90.58
2022-11-16T07:29:19.350Z,89.97
2022-11-16T07:31:20.735Z,90.32
2022-11-16T07:33:22.175Z,91.00
2022-11-16T07:35:24.910Z,90.51
2022-11-16T07:37:26.410Z,89.70
2022-11-16T07:39:27.813Z,89.35
2022-11-16T07:41:29.173Z,90.10
2022-11-16T07:43:31.974Z,89.97
2022-11-16T07:45:33.848Z,89.82
2022-11-16T07:47:36.768Z,90.41
2022-11-16T07:49:38.217Z,90.23
2022-11-16T07:51:39.616Z,90.16
2022-11-16T07:53:42.159Z,90.52
2022-11-16T07:55:43.492Z,90.21
2022-11-16T07:57:47.948Z,90.71
2022-11-16T07:59:53.395Z,90.26
2022-11-16T08:01:59.099Z,89.65
2022-11-16T08:04:03.547Z,89.50
2022-11-16T08:06:12.295Z,89.06
2022-11-16T08:08:13.696Z,89.33
2022-11-16T08:10:15.338Z,89.84
2022-11-16T08:12:17.386Z,89.87
2022-11-16T08:14:19.159Z,90.23
2022-11-16T08:16:22.267Z,90.13
2022-11-16T08:18:23.607Z,90.63
2022-11-16T08:20:25.072Z,91.50
2022-11-16T08:22:26.459Z,91.03
2022-11-16T08:24:28.075Z,90.68
2022-11-16T08:26:29.539Z,91.35
2022-11-16T08:28:31.781Z,91.35
2022-11-16T08:30:33.392Z,90.88
2022-11-16T08:32:34.801Z,90.58
2022-11-16T08:34:36.158Z,91.20
2022-11-16T08:36:40.264Z,90.26
2022-11-16T08:38:41.649Z,89.06
2022-11-16T08:40:43.004Z,88.83
2022-11-16T08:42:44.426Z,89.11
2022-11-16T08:44:45.806Z,88.23
2022-11-16T08:46:47.239Z,88.75
2022-11-16T08:48:48.699Z,87.86
2022-11-16T08:51:16.061Z,87.04
2022-11-16T08:53:11.470Z,87.13
2022-11-16T08:55:13.869Z,87.11
2022-11-16T08:57:15.225Z,86.48
2022-11-16T08:59:16.681Z,86.39
2022-11-16T09:01:21.557Z,86.03
2022-11-16T09:03:22.996Z,84.47
2022-11-16T09:05:24.411Z,85.50
2022-11-16T09:07:25.817Z,83.41
2022-11-16T09:09:27.155Z,82.70
2022-11-16T09:11:29.087Z,84.25
2022-11-16T09:13:30.435Z,83.73
2022-11-16T09:15:32.004Z,84.09
2022-11-16T09:17:33.421Z,82.50
2022-11-16T09:19:34.765Z,83.92
2022-11-16T09:21:37.517Z,82.44
2022-11-16T09:23:38.941Z,81.03
2022-11-16T09:25:40.267Z,81.04
2022-11-16T09:27:41.793Z,81.66
2022-11-16T09:29:43.201Z,82.62
2022-11-16T09:31:44.615Z,82.38
2022-11-16T09:33:48.662Z,80.57
2022-11-16T09:35:50.010Z,80.07
2022-11-16T09:37:51.349Z,81.51
2022-11-16T09:39:52.756Z,80.39
2022-11-16T09:42:07.219Z,80.30
2022-11-16T09:44:40.850Z,80.91
2022-11-16T09:46:49.572Z,80.38
2022-11-16T09:48:51.834Z,79.25
2022-11-16T09:50:56.815Z,78.70
2022-11-16T09:53:13.353Z,78.05
2022-11-16T09:55:26.291Z,79.32
2022-11-16T09:57:37.090Z,78.30
2022-11-16T09:59:41.799Z,78.10
2022-11-16T10:01:56.735Z,76.88
2022-11-16T10:04:08.932Z,76.76
2022-11-16T10:06:22.009Z,77.22
2022-11-16T10:08:58.726Z,75.47
2022-11-16T10:11:00.100Z,74.80
2022-11-16T10:13:30.450Z,76.35
2022-11-16T10:16:04.097Z,75.89
2022-11-16T10:18:37.471Z,77.25
2022-11-16T10:20:47.944Z,77.86
2022-11-16T10:23:11.529Z,75.87
2022-11-16T10:25:22.889Z,73.79
2022-11-16T10:28:09.249Z,75.72
2022-11-16T10:30:14.740Z,74.67
2022-11-16T10:32:27.964Z,74.08
2022-11-16T10:34:56.520Z,72.83
2022-11-16T10:37:07.673Z,71.30
2022-11-16T10:39:13.940Z,69.05
2022-11-16T10:41:25.898Z,70.96
2022-11-16T10:43:30.585Z,72.33
2022-11-16T10:45:38.584Z,71.92
2022-11-16T10:47:50.722Z,70.36
2022-11-16T10:50:02.237Z,70.84
2022-11-16T10:52:03.755Z,71.33
2022-11-16T10:54:16.105Z,70.99
2022-11-16T10:56:30.113Z,72.43
2022-11-16T10:58:50.552Z,72.89
2022-11-16T11:00:52.072Z,70.17
2022-11-16T11:02:53.513Z,69.36
2022-11-16T11:05:08.095Z,69.68
2022-11-16T11:07:29.267Z,69.92
2022-11-16T11:09:30.683Z,69.73
2022-11-16T11:11:50.443Z,67.96
2022-11-16T11:14:04.812Z,71.50
2022-11-16T11:16:17.687Z,71.88
2022-11-16T11:18:26.180Z,70.52
2022-11-16T11:20:27.571Z,71.19
2022-11-16T11:22:29.060Z,69.78
2022-11-16T11:24:44.260Z,67.58
2022-11-16T11:26:52.990Z,69.22
2022-11-16T11:28:54.842Z,68.28
2022-11-16T11:31:01.502Z,67.73
2022-11-16T11:33:11.229Z,66.64
2022-11-16T11:35:24.632Z,65.40
2022-11-16T11:37:29.436Z,67.33
2022-11-16T11:39:36.445Z,66.27
2022-11-16T11:41:43.704Z,66.53
2022-11-16T11:44:05.152Z,65.45
2022-11-16T11:46:15.299Z,66.62
2022-11-16T11:48:37.801Z,67.45
2022-11-16T11:50:42.047Z,65.51
2022-11-16T11:52:46.400Z,67.07
2022-11-16T11:54:52.580Z,67.02
2022-11-16T11:56:54.390Z,67.66
2022-11-16T11:58:56.498Z,69.08
2022-11-16T12:00:57.836Z,69.19
2022-11-16T12:03:35.605Z,66.00
2022-11-16T12:06:02.104Z,65.07
2022-11-16T12:08:21.626Z,66.53
2022-11-16T12:10:48.892Z,66.31
2022-11-16T12:13:05.453Z,64.58
2022-11-16T12:15:32.174Z,65.27
2022-11-16T12:18:18.374Z,64.28
2022-11-16T12:20:31.835Z,64.23
2022-11-16T12:22:51.503Z,62.94
2022-11-16T12:24:59.934Z,66.07
2022-11-16T12:27:32.132Z,63.52
2022-11-16T12:30:14.056Z,65.46
2022-11-16T12:32:31.936Z,63.68
2022-11-16T12:34:48.367Z,63.95
2022-11-16T12:37:07.731Z,64.60
2022-11-16T12:39:14.862Z,61.84
2022-11-16T12:41:37.401Z,62.40
2022-11-16T12:43:47.457Z,62.32
2022-11-16T12:45:57.893Z,61.69
2022-11-16T12:48:24.199Z,62.05
2022-11-16T12:50:43.898Z,63.51
2022-11-16T12:53:18.063Z,61.75
2022-11-16T12:55:41.451Z,61.86
2022-11-16T12:58:04.665Z,63.18
2022-11-16T13:00:12.491Z,63.87
2022-11-16T13:02:41.021Z,64.37
2022-11-16T13:04:48.161Z,63.15
2022-11-16T13:07:10.922Z,63.96
2022-11-16T13:09:15.480Z,65.72
2022-11-16T13:11:29.696Z,64.86
2022-11-16T13:13:36.686Z,65.22
2022-11-16T13:15:40.871Z,66.12
2022-11-16T13:17:44.339Z,64.54
2022-11-16T13:19:57.616Z,63.89
2022-11-16T13:22:07.463Z,63.49
2022-11-16T13:24:11.773Z,64.21
2022-11-16T13:26:22.553Z,62.08
2022-11-16T13:28:38.403Z,62.21
2022-11-16T13:30:57.487Z,62.39
2022-11-16T13:33:01.856Z,61.37
2022-11-16T13:35:11.628Z,62.31
2022-11-16T13:37:38.013Z,62.39
2022-11-16T13:40:03.340Z,62.46
2022-11-16T13:42:13.107Z,63.97
2022-11-16T13:44:24.528Z,64.84
2022-11-16T13:46:55.921Z,64.65
2022-11-16T13:48:58.106Z,64.86
2022-11-16T13:51:22.845Z,65.38
2022-11-16T13:54:42.657Z,66.51
2022-11-16T13:56:01.775Z,65.43
2022-11-16T13:58:06.190Z,65.47
2022-11-16T14:00:11.292Z,68.61
2022-11-16T14:02:29.465Z,66.92
2022-11-16T14:04:41.908Z,67.55
2022-11-16T14:06:43.212Z,69.30
2022-11-16T14:08:45.312Z,67.46
2022-11-16T14:10:49.999Z,68.08
2022-11-16T14:12:54.005Z,68.15
2022-11-16T14:15:21.964Z,68.85
2022-11-16T14:17:55.062Z,69.73
2022-11-16T14:19:56.896Z,68.25
2022-11-16T14:22:12.455Z,68.26
2022-11-16T14:24:40.901Z,66.91
2022-11-16T14:27:16.881Z,67.00
2022-11-16T14:29:31.871Z,69.88
2022-11-16T14:31:56.686Z,71.10
2022-11-16T14:34:00.416Z,70.12
2022-11-16T14:36:04.418Z,68.77
2022-11-16T14:38:17.757Z,69.41
2022-11-16T14:40:20.021Z,68.37
2022-11-16T14:42:48.394Z,67.75
2022-11-16T14:45:11.749Z,66.34
2022-11-16T14:47:25.292Z,66.46
2022-11-16T14:49:28.622Z,65.95
2022-11-16T14:51:35.350Z,66.28
2022-11-16T14:53:41.599Z,67.33
2022-11-16T14:55:45.819Z,68.06
2022-11-16T14:57:47.695Z,67.87
2022-11-16T15:00:06.001Z,68.48
2022-11-16T15:02:18.920Z,69.12
2022-11-16T15:04:22.056Z,70.32
2022-11-16T15:06:25.887Z,69.11
2022-11-16T15:08:42.827Z,69.91
2022-11-16T15:10:51.075Z,70.85
2022-11-16T15:12:55.753Z,72.21
2022-11-16T15:15:01.104Z,71.23
2022-11-16T15:17:02.926Z,73.03
2022-11-16T15:19:12.478Z,71.67
2022-11-16T15:21:24.064Z,71.54
2022-11-16T15:23:30.403Z,72.18
2022-11-16T15:25:35.945Z,73.47
2022-11-16T15:27:40.593Z,73.61
2022-11-16T15:29:42.049Z,73.32
2022-11-16T15:31:45.195Z,74.34
2022-11-16T15:33:46.736Z,75.24
2022-11-16T15:35:48.303Z,75.08
2022-11-16T15:38:16.619Z,74.01
2022-11-16T15:40:18.012Z,75.38
2022-11-16T15:42:20.920Z,75.40
2022-11-16T15:44:23.573Z,74.02
2022-11-16T15:46:31.230Z,75.77
2022-11-16T15:48:34.004Z,75.30
2022-11-16T15:50:35.866Z,75.82
2022-11-16T15:52:45.455Z,75.84
2022-11-16T15:55:03.865Z,75.66
2022-11-16T15:57:09.728Z,74.54
2022-11-16T15:59:27.580Z,75.52
2022-11-16T16:01:30.349Z,76.50
2022-11-16T16:03:35.219Z,75.79
2022-11-16T16:05:40.954Z,76.92
2022-11-16T16:07:43.868Z,76.90
2022-11-16T16:09:45.319Z,76.64
2022-11-16T16:11:46.956Z,76.29
2022-11-16T16:14:10.697Z,76.36
2022-11-16T16:16:12.174Z,76.30
2022-11-16T16:18:39.385Z,76.59
2022-11-16T16:20:48.716Z,77.33
2022-11-16T16:22:51.482Z,76.80
2022-11-16T16:24:53.575Z,77.05
2022-11-16T16:26:55.050Z,77.39
2022-11-16T16:28:56.783Z,76.13
2022-11-16T16:30:58.147Z,76.27
2022-11-16T16:32:59.744Z,76.61
2022-11-16T16:35:03.056Z,77.01
2022-11-16T16:37:04.416Z,77.38
2022-11-16T16:39:05.772Z,76.71
2022-11-16T16:41:07.638Z,77.52
2022-11-16T16:43:09.025Z,78.07
2022-11-16T16:45:35.102Z,78.21
2022-11-16T16:47:36.471Z,78.13
2022-11-16T16:49:38.120Z,78.41
2022-11-16T16:51:39.494Z,78.29
2022-11-16T16:53:40.822Z,78.85
2022-11-16T16:55:43.132Z,78.41
2022-11-16T16:57:44.497Z,78.25
2022-11-16T16:59:48.056Z,78.66
2022-11-16T17:01:50.588Z,78.12
2022-11-16T17:03:51.948Z,78.13
2022-11-16T17:05:59.595Z,78.25
2022-11-16T17:08:01.089Z,78.27
2022-11-16T17:10:02.468Z,78.94
2022-11-16T17:12:04.288Z,78.75
2022-11-16T17:14:05.830Z,78.91
2022-11-16T17:16:07.534Z,79.09
2022-11-16T17:18:09.231Z,78.04
2022-11-16T17:20:11.501Z,78.02
2022-11-16T17:22:13.979Z,78.30
2022-11-16T17:24:15.371Z,78.78
2022-11-16T17:26:17.259Z,79.60
2022-11-16T17:28:18.710Z,78.60
2022-11-16T17:30:20.212Z,79.18
2022-11-16T17:32:21.585Z,78.81
2022-11-16T17:34:23.035Z,79.22
2022-11-16T17:36:24.383Z,78.52
2022-11-16T17:38:25.881Z,79.05
2022-11-16T17:40:27.335Z,79.28
2022-11-16T17:42:28.710Z,79.23
2022-11-16T17:44:30.381Z,79.65
2022-11-16T17:46:31.823Z,79.26
2022-11-16T17:48:33.979Z,79.83
2022-11-16T17:50:35.360Z,80.01
2022-11-16T17:52:36.743Z,80.78
2022-11-16T17:54:38.135Z,81.36
2022-11-16T17:56:39.533Z,80.06
2022-11-16T17:58:41.465Z,80.46
2022-11-16T18:00:42.852Z,80.32
2022-11-16T18:02:44.263Z,81.03
2022-11-16T18:04:50.709Z,81.49
2022-11-16T18:06:52.500Z,81.77
2022-11-16T18:08:54.143Z,81.52
2022-11-16T18:10:55.573Z,81.42
2022-11-16T18:12:57.062Z,81.53
2022-11-16T18:15:26.518Z,81.40
2022-11-16T18:17:20.036Z,81.44
2022-11-16T18:19:23.376Z,82.11
2022-11-16T18:21:25.530Z,82.58
2022-11-16T18:23:30.077Z,83.01
2022-11-16T18:25:34.572Z,82.44
2022-11-16T18:27:38.500Z,82.86
2022-11-16T18:29:40.145Z,82.95
2022-11-16T18:31:42.159Z,83.08
2022-11-16T18:33:44.331Z,83.32
2022-11-16T18:35:45.812Z,83.69
2022-11-16T18:37:47.153Z,83.96
2022-11-16T18:39:48.599Z,84.24
2022-11-16T18:41:55.015Z,84.66
2022-11-16T18:43:59.006Z,84.72
2022-11-16T18:46:00.655Z,84.84
2022-11-16T18:48:01.983Z,84.88
2022-11-16T18:50:06.002Z,84.56
2022-11-16T18:52:07.400Z,85.11
2022-11-16T18:54:09.785Z,85.42
2022-11-16T18:56:11.858Z,85.25
2022-11-16T18:58:43.486Z,85.45
2022-11-16T19:00:34.657Z,85.22
2022-11-16T19:02:36.058Z,85.19
2022-11-16T19:04:39.936Z,85.83
2022-11-16T19:06:41.325Z,85.04
2022-11-16T19:08:43.578Z,85.87
2022-11-16T19:10:45.028Z,85.65
2022-11-16T19:12:46.410Z,85.83
2022-11-16T19:14:47.812Z,85.69
2022-11-16T19:16:55.638Z,85.87
2022-11-16T19:18:58.488Z,86.06
2022-11-16T19:21:11.070Z,86.14
2022-11-16T19:23:12.540Z,86.47
2022-11-16T19:25:13.969Z,87.10
2022-11-16T19:27:16.618Z,86.69
2022-11-16T19:29:18.008Z,87.20
2022-11-16T19:31:20.690Z,87.55
2022-11-16T19:33:22.121Z,87.76
2022-11-16T19:35:23.822Z,86.97
2022-11-16T19:37:25.755Z,87.35
2022-11-16T19:39:27.188Z,87.58
2022-11-16T19:41:28.597Z,87.38
2022-11-16T19:43:30.041Z,86.88
2022-11-16T19:45:31.764Z,87.25
2022-11-16T19:47:33.124Z,87.41
2022-11-16T19:49:34.549Z,87.81
2022-11-16T19:51:36.073Z,87.70
2022-11-16T19:53:38.322Z,87.69
2022-11-16T19:55:39.853Z,88.17
2022-11-16T19:57:41.455Z,87.18
2022-11-16T19:59:42.861Z,87.76
2022-11-16T20:01:44.252Z,88.54
2022-11-16T20:03:47.288Z,87.63
2022-11-16T20:05:48.638Z,87.19
2022-11-16T20:07:50.299Z,88.01
2022-11-16T20:09:53.545Z,88.36
2022-11-16T20:11:56.357Z,88.50
2022-11-16T20:13:58.402Z,88.00
2022-11-16T20:16:01.992Z,88.68
2022-11-16T20:18:03.480Z,88.17
2022-11-16T20:20:05.277Z,88.58
2022-11-16T20:22:06.764Z,87.98
2022-11-16T20:24:12.040Z,87.66
2022-11-16T20:26:14.362Z,87.85
2022-11-16T20:28:15.760Z,87.93
2022-11-16T20:30:17.395Z,87.88
2022-11-16T20:32:18.891Z,88.65
2022-11-16T20:34:22.058Z,87.70
2022-11-16T20:36:25.250Z,89.06
2022-11-16T20:38:26.613Z,88.61
2022-11-16T20:40:28.048Z,88.90
2022-11-16T20:42:29.416Z,88.19
2022-11-16T20:44:36.456Z,88.54
2022-11-16T20:46:38.434Z,88.79
2022-11-16T20:48:41.127Z,88.15
2022-11-16T20:50:42.576Z,88.34
2022-11-16T20:52:47.245Z,88.51
2022-11-16T20:54:52.853Z,88.84
2022-11-16T20:56:54.236Z,88.21
2022-11-16T20:58:57.874Z,88.58
2022-11-16T21:01:01.177Z,88.73
2022-11-16T21:03:08.517Z,88.86
2022-11-16T21:05:09.918Z,88.93
2022-11-16T21:07:11.360Z,88.53
2022-11-16T21:09:15.519Z,88.13
2022-11-16T21:11:19.719Z,88.82
2022-11-16T21:13:40.365Z,88.07
2022-11-16T21:15:41.739Z,88.21
2022-11-16T21:17:43.209Z,87.50
2022-11-16T21:20:05.399Z,87.65
2022-11-16T21:22:05.947Z,86.91
2022-11-16T21:24:11.282Z,88.07
2022-11-16T21:26:14.986Z,87.92
2022-11-16T21:28:20.109Z,87.22
2022-11-16T21:30:27.199Z,87.10
2022-11-16T21:32:28.589Z,87.09
2022-11-16T21:34:34.620Z,87.14
2022-11-16T21:36:39.336Z,86.22
2022-11-16T21:38:41.380Z,86.50
2022-11-16T21:43:09.078Z,85.76
2022-11-16T21:45:11.565Z,85.95
2022-11-16T21:47:13.265Z,85.61
2022-11-16T21:49:14.602Z,85.09
2022-11-16T21:51:18.220Z,85.32
2022-11-16T21:53:19.607Z,84.87
2022-11-16T21:55:20.998Z,85.13
2022-11-16T21:57:22.869Z,85.14
2022-11-16T21:59:24.311Z,85.24
2022-11-16T22:01:45.695Z,84.26
2022-11-16T22:03:48.391Z,84.34
2022-11-16T22:06:12.709Z,84.28
2022-11-16T22:08:17.708Z,84.23
2022-11-16T22:10:19.224Z,83.85
2022-11-16T22:12:20.838Z,84.30
2022-11-16T22:14:22.229Z,84.43
2022-11-16T22:16:23.829Z,84.61
2022-11-16T22:18:25.233Z,84.19
2022-11-16T22:20:26.612Z,84.34
2022-11-16T22:22:28.394Z,84.52
2022-11-16T22:24:30.608Z,84.32
2022-11-16T22:26:32.079Z,84.86
2022-11-16T22:28:34.219Z,84.09
2022-11-16T22:30:36.126Z,84.58
2022-11-16T22:32:37.601Z,84.30
2022-11-16T22:34:39.128Z,84.22
2022-11-16T22:36:40.500Z,84.24
2022-11-16T22:38:41.895Z,84.26
2022-11-16T22:40:52.258Z,83.82
2022-11-16T22:42:56.967Z,84.15
2022-11-16T22:44:58.373Z,84.35
2022-11-16T22:46:59.799Z,83.77
2022-11-16T22:49:01.164Z,83.52
2022-11-16T22:51:12.063Z,83.57
2022-11-16T22:53:14.647Z,83.11
2022-11-16T22:55:16.062Z,83.62
2022-11-16T22:57:17.417Z,83.48
2022-11-16T22:59:18.792Z,82.70
2022-11-16T23:01:20.882Z,83.32
2022-11-16T23:03:22.285Z,83.08
2022-11-16T23:05:23.737Z,82.82
2022-11-16T23:07:25.137Z,83.05
2022-11-16T23:09:26.616Z,83.56
2022-11-16T23:11:47.068Z,83.00
2022-11-16T23:14:07.948Z,82.75
2022-11-16T23:16:09.328Z,83.29
2022-11-16T23:18:10.785Z,83.03
2022-11-16T23:20:30.865Z,83.55
2022-11-16T23:22:50.683Z,83.16
2022-11-16T23:25:10.545Z,82.49
2022-11-16T23:27:29.891Z,82.45
2022-11-16T23:29:31.285Z,82.68
2022-11-16T23:31:32.620Z,82.52
2022-11-16T23:33:46.087Z,82.19
2022-11-16T23:35:47.478Z,82.63
2022-11-16T23:38:08.047Z,83.01
2022-11-16T23:40:10.008Z,82.90
2022-11-16T23:42:30.700Z,82.60
2022-11-16T23:44:32.043Z,82.50
2022-11-16T23:46:33.816Z,82.43
2022-11-16T23:48:35.209Z,82.81
2022-11-16T23:50:37.118Z,82.70
2022-11-16T23:52:38.481Z,82.94
2022-11-16T23:54:39.887Z,81.93
2022-11-16T23:56:41.272Z,82.80
2022-11-16T23:58:42.616Z,82.39
